sensor_id;sensor_type;location;lat;lon;timestamp;P1;durP1;ratioP1;P2;durP2;ratioP2
16254;SDS011;8235;52.198;9.904;2022-11-11T00:00:32;2.67;;;1.30;;
16254;SDS011;8235;52.198;9.904;2022-11-11T00:02:59;3.30;;;1.37;;
16254;SDS011;8235;52.198;9.904;2022-11-11T00:05:28;4.73;;;1.40;;
16254;SDS011;8235;52.198;9.904;2022-11-11T00:07:55;3.10;;;1.10;;
16254;SDS011;8235;52.198;9.904;2022-11-11T00:10:23;2.40;;;1.07;;
16254;SDS011;8235;52.198;9.904;2022-11-11T00:12:50;3.37;;;1.47;;
16254;SDS011;8235;52.198;9.904;2022-11-11T00:15:16;3.00;;;1.00;;
16254;SDS011;8235;52.198;9.904;2022-11-11T00:17:43;3.47;;;1.37;;
16254;SDS011;8235;52.198;9.904;2022-11-11T00:20:28;2.30;;;1.20;;
16254;SDS011;8235;52.198;9.904;2022-11-11T00:23:21;2.93;;;1.20;;
16254;SDS011;8235;52.198;9.904;2022-11-11T00:26:07;4.10;;;1.23;;
16254;SDS011;8235;52.198;9.904;2022-11-11T00:28:35;3.30;;;1.37;;
16254;SDS011;8235;52.198;9.904;2022-11-11T00:31:02;4.03;;;1.63;;
16254;SDS011;8235;52.198;9.904;2022-11-11T00:33:31;3.23;;;1.40;;
16254;SDS011;8235;52.198;9.904;2022-11-11T00:35:59;3.37;;;1.00;;
16254;SDS011;8235;52.198;9.904;2022-11-11T00:38:25;5.43;;;1.27;;
16254;SDS011;8235;52.198;9.904;2022-11-11T00:41:09;5.00;;;1.33;;
16254;SDS011;8235;52.198;9.904;2022-11-11T00:43:36;4.13;;;1.40;;
16254;SDS011;8235;52.198;9.904;2022-11-11T00:46:03;3.37;;;1.10;;
16254;SDS011;8235;52.198;9.904;2022-11-11T00:48:47;3.33;;;1.30;;
16254;SDS011;8235;52.198;9.904;2022-11-11T00:51:32;4.40;;;1.20;;
16254;SDS011;8235;52.198;9.904;2022-11-11T00:53:59;1.70;;;1.10;;
16254;SDS011;8235;52.198;9.904;2022-11-11T00:56:25;3.67;;;1.10;;
16254;SDS011;8235;52.198;9.904;2022-11-11T00:58:52;4.07;;;1.20;;
16254;SDS011;8235;52.198;9.904;2022-11-11T01:01:19;3.93;;;1.27;;
16254;SDS011;8235;52.198;9.904;2022-11-11T01:03:45;4.90;;;1.37;;
16254;SDS011;8235;52.198;9.904;2022-11-11T01:06:12;3.07;;;1.10;;
16254;SDS011;8235;52.198;9.904;2022-11-11T01:08:40;3.77;;;1.40;;
16254;SDS011;8235;52.198;9.904;2022-11-11T01:11:12;4.77;;;1.83;;
16254;SDS011;8235;52.198;9.904;2022-11-11T01:13:39;4.63;;;1.83;;
16254;SDS011;8235;52.198;9.904;2022-11-11T01:16:07;3.10;;;1.20;;
16254;SDS011;8235;52.198;9.904;2022-11-11T01:18:37;2.53;;;1.37;;
16254;SDS011;8235;52.198;9.904;2022-11-11T01:21:04;3.13;;;1.07;;
16254;SDS011;8235;52.198;9.904;2022-11-11T01:23:33;3.73;;;1.00;;
16254;SDS011;8235;52.198;9.904;2022-11-11T01:26:03;4.03;;;1.70;;
16254;SDS011;8235;52.198;9.904;2022-11-11T01:28:31;3.00;;;1.10;;
16254;SDS011;8235;52.198;9.904;2022-11-11T01:31:02;1.53;;;1.00;;
16254;SDS011;8235;52.198;9.904;2022-11-11T01:33:30;2.93;;;1.40;;
16254;SDS011;8235;52.198;9.904;2022-11-11T01:36:01;2.10;;;1.00;;
16254;SDS011;8235;52.198;9.904;2022-11-11T01:38:28;3.03;;;1.77;;
16254;SDS011;8235;52.198;9.904;2022-11-11T01:40:55;2.57;;;1.10;;
16254;SDS011;8235;52.198;9.904;2022-11-11T01:43:23;1.57;;;0.93;;
16254;SDS011;8235;52.198;9.904;2022-11-11T01:45:51;2.40;;;1.13;;
16254;SDS011;8235;52.198;9.904;2022-11-11T01:48:24;5.23;;;1.30;;
16254;SDS011;8235;52.198;9.904;2022-11-11T01:51:14;2.33;;;1.00;;
16254;SDS011;8235;52.198;9.904;2022-11-11T01:53:45;3.17;;;1.03;;
16254;SDS011;8235;52.198;9.904;2022-11-11T01:56:14;1.80;;;1.30;;
16254;SDS011;8235;52.198;9.904;2022-11-11T01:58:43;2.80;;;0.90;;
16254;SDS011;8235;52.198;9.904;2022-11-11T02:01:10;2.17;;;1.20;;
16254;SDS011;8235;52.198;9.904;2022-11-11T02:03:37;2.53;;;1.10;;
16254;SDS011;8235;52.198;9.904;2022-11-11T02:06:26;4.67;;;1.20;;
16254;SDS011;8235;52.198;9.904;2022-11-11T02:08:52;2.70;;;1.00;;
16254;SDS011;8235;52.198;9.904;2022-11-11T02:11:19;2.03;;;0.97;;
16254;SDS011;8235;52.198;9.904;2022-11-11T02:14:04;3.20;;;1.10;;
16254;SDS011;8235;52.198;9.904;2022-11-11T02:16:50;2.80;;;1.10;;
16254;SDS011;8235;52.198;9.904;2022-11-11T02:19:17;4.47;;;1.17;;
16254;SDS011;8235;52.198;9.904;2022-11-11T02:21:50;3.27;;;1.13;;
16254;SDS011;8235;52.198;9.904;2022-11-11T02:24:23;2.33;;;0.77;;
16254;SDS011;8235;52.198;9.904;2022-11-11T02:26:51;2.60;;;0.90;;
16254;SDS011;8235;52.198;9.904;2022-11-11T02:29:20;4.17;;;1.40;;
16254;SDS011;8235;52.198;9.904;2022-11-11T02:31:48;2.37;;;1.20;;
16254;SDS011;8235;52.198;9.904;2022-11-11T02:34:14;4.57;;;1.10;;
16254;SDS011;8235;52.198;9.904;2022-11-11T02:36:41;2.80;;;1.17;;
16254;SDS011;8235;52.198;9.904;2022-11-11T02:39:09;3.00;;;1.00;;
16254;SDS011;8235;52.198;9.904;2022-11-11T02:41:37;3.40;;;1.10;;
16254;SDS011;8235;52.198;9.904;2022-11-11T02:44:21;3.27;;;1.03;;
16254;SDS011;8235;52.198;9.904;2022-11-11T02:46:47;2.87;;;1.30;;
16254;SDS011;8235;52.198;9.904;2022-11-11T02:49:14;2.13;;;1.10;;
16254;SDS011;8235;52.198;9.904;2022-11-11T02:51:40;2.47;;;1.00;;
16254;SDS011;8235;52.198;9.904;2022-11-11T02:54:07;2.73;;;1.07;;
16254;SDS011;8235;52.198;9.904;2022-11-11T02:56:33;2.00;;;0.90;;
16254;SDS011;8235;52.198;9.904;2022-11-11T02:59:19;4.90;;;1.10;;
16254;SDS011;8235;52.198;9.904;2022-11-11T03:01:46;2.30;;;1.23;;
16254;SDS011;8235;52.198;9.904;2022-11-11T03:04:12;2.50;;;1.30;;
16254;SDS011;8235;52.198;9.904;2022-11-11T03:06:39;3.03;;;1.00;;
16254;SDS011;8235;52.198;9.904;2022-11-11T03:09:05;2.60;;;1.00;;
16254;SDS011;8235;52.198;9.904;2022-11-11T03:11:31;3.10;;;1.10;;
16254;SDS011;8235;52.198;9.904;2022-11-11T03:14:02;2.37;;;1.10;;
16254;SDS011;8235;52.198;9.904;2022-11-11T03:16:31;4.00;;;1.50;;
16254;SDS011;8235;52.198;9.904;2022-11-11T03:19:15;4.10;;;1.30;;
16254;SDS011;8235;52.198;9.904;2022-11-11T03:21:41;6.10;;;1.40;;
16254;SDS011;8235;52.198;9.904;2022-11-11T03:24:08;2.97;;;1.30;;
16254;SDS011;8235;52.198;9.904;2022-11-11T03:26:35;1.93;;;0.93;;
16254;SDS011;8235;52.198;9.904;2022-11-11T03:29:02;1.77;;;1.00;;
16254;SDS011;8235;52.198;9.904;2022-11-11T03:31:30;4.97;;;1.17;;
16254;SDS011;8235;52.198;9.904;2022-11-11T03:33:57;2.57;;;1.10;;
16254;SDS011;8235;52.198;9.904;2022-11-11T03:36:42;3.80;;;1.30;;
16254;SDS011;8235;52.198;9.904;2022-11-11T03:39:26;1.37;;;1.20;;
16254;SDS011;8235;52.198;9.904;2022-11-11T03:41:56;5.93;;;1.40;;
16254;SDS011;8235;52.198;9.904;2022-11-11T03:44:22;2.53;;;1.30;;
16254;SDS011;8235;52.198;9.904;2022-11-11T03:46:53;1.10;;;0.90;;
16254;SDS011;8235;52.198;9.904;2022-11-11T03:49:20;4.70;;;1.27;;
16254;SDS011;8235;52.198;9.904;2022-11-11T03:51:46;2.97;;;1.17;;
16254;SDS011;8235;52.198;9.904;2022-11-11T03:54:13;2.60;;;1.00;;
16254;SDS011;8235;52.198;9.904;2022-11-11T03:56:39;2.63;;;1.47;;
16254;SDS011;8235;52.198;9.904;2022-11-11T03:59:06;2.63;;;0.97;;
16254;SDS011;8235;52.198;9.904;2022-11-11T04:01:32;3.40;;;1.40;;
16254;SDS011;8235;52.198;9.904;2022-11-11T04:04:18;1.80;;;0.90;;
16254;SDS011;8235;52.198;9.904;2022-11-11T04:07:02;2.53;;;0.83;;
16254;SDS011;8235;52.198;9.904;2022-11-11T04:09:45;2.63;;;1.10;;
16254;SDS011;8235;52.198;9.904;2022-11-11T04:12:30;3.33;;;1.10;;
16254;SDS011;8235;52.198;9.904;2022-11-11T04:15:18;1.57;;;0.80;;
16254;SDS011;8235;52.198;9.904;2022-11-11T04:18:02;3.17;;;1.00;;
16254;SDS011;8235;52.198;9.904;2022-11-11T04:20:30;2.70;;;1.00;;
16254;SDS011;8235;52.198;9.904;2022-11-11T04:23:13;4.67;;;1.10;;
16254;SDS011;8235;52.198;9.904;2022-11-11T04:25:39;3.23;;;1.00;;
16254;SDS011;8235;52.198;9.904;2022-11-11T04:28:14;2.20;;;1.10;;
16254;SDS011;8235;52.198;9.904;2022-11-11T04:30:58;3.47;;;0.97;;
16254;SDS011;8235;52.198;9.904;2022-11-11T04:33:25;3.23;;;1.27;;
16254;SDS011;8235;52.198;9.904;2022-11-11T04:35:53;2.07;;;0.73;;
16254;SDS011;8235;52.198;9.904;2022-11-11T04:38:19;3.27;;;1.10;;
16254;SDS011;8235;52.198;9.904;2022-11-11T04:41:03;3.63;;;1.17;;
16254;SDS011;8235;52.198;9.904;2022-11-11T04:43:32;4.47;;;1.43;;
16254;SDS011;8235;52.198;9.904;2022-11-11T04:46:20;3.00;;;1.00;;
16254;SDS011;8235;52.198;9.904;2022-11-11T04:48:45;2.97;;;1.87;;
16254;SDS011;8235;52.198;9.904;2022-11-11T04:51:13;1.50;;;0.93;;
16254;SDS011;8235;52.198;9.904;2022-11-11T04:53:39;2.37;;;1.10;;
16254;SDS011;8235;52.198;9.904;2022-11-11T04:56:07;2.83;;;1.37;;
16254;SDS011;8235;52.198;9.904;2022-11-11T04:58:51;1.30;;;0.80;;
16254;SDS011;8235;52.198;9.904;2022-11-11T05:01:38;1.33;;;0.80;;
16254;SDS011;8235;52.198;9.904;2022-11-11T05:04:22;3.97;;;0.97;;
16254;SDS011;8235;52.198;9.904;2022-11-11T05:06:50;2.10;;;1.10;;
16254;SDS011;8235;52.198;9.904;2022-11-11T05:09:34;3.73;;;1.23;;
16254;SDS011;8235;52.198;9.904;2022-11-11T05:12:00;2.97;;;1.20;;
16254;SDS011;8235;52.198;9.904;2022-11-11T05:14:27;1.53;;;1.10;;
16254;SDS011;8235;52.198;9.904;2022-11-11T05:17:11;4.47;;;1.40;;
16254;SDS011;8235;52.198;9.904;2022-11-11T05:19:55;1.83;;;1.13;;
16254;SDS011;8235;52.198;9.904;2022-11-11T05:22:40;1.50;;;0.70;;
16254;SDS011;8235;52.198;9.904;2022-11-11T05:25:08;1.73;;;1.00;;
16254;SDS011;8235;52.198;9.904;2022-11-11T05:27:49;3.03;;;1.20;;
16254;SDS011;8235;52.198;9.904;2022-11-11T05:30:16;5.17;;;1.20;;
16254;SDS011;8235;52.198;9.904;2022-11-11T05:32:43;2.20;;;1.17;;
16254;SDS011;8235;52.198;9.904;2022-11-11T05:35:11;3.40;;;1.73;;
16254;SDS011;8235;52.198;9.904;2022-11-11T05:37:38;4.10;;;1.20;;
16254;SDS011;8235;52.198;9.904;2022-11-11T05:40:07;4.60;;;1.03;;
16254;SDS011;8235;52.198;9.904;2022-11-11T05:42:35;2.77;;;1.27;;
16254;SDS011;8235;52.198;9.904;2022-11-11T05:45:05;2.33;;;1.17;;
16254;SDS011;8235;52.198;9.904;2022-11-11T05:47:33;4.17;;;1.80;;
16254;SDS011;8235;52.198;9.904;2022-11-11T05:49:59;3.47;;;1.50;;
16254;SDS011;8235;52.198;9.904;2022-11-11T05:52:25;2.97;;;1.30;;
16254;SDS011;8235;52.198;9.904;2022-11-11T05:54:57;1.73;;;1.17;;
16254;SDS011;8235;52.198;9.904;2022-11-11T05:57:40;3.50;;;1.30;;
16254;SDS011;8235;52.198;9.904;2022-11-11T06:00:07;1.80;;;1.00;;
16254;SDS011;8235;52.198;9.904;2022-11-11T06:02:34;3.20;;;1.80;;
16254;SDS011;8235;52.198;9.904;2022-11-11T06:05:02;2.43;;;1.53;;
16254;SDS011;8235;52.198;9.904;2022-11-11T06:07:28;3.63;;;1.30;;
16254;SDS011;8235;52.198;9.904;2022-11-11T06:09:55;2.10;;;1.67;;
16254;SDS011;8235;52.198;9.904;2022-11-11T06:12:43;2.60;;;1.43;;
16254;SDS011;8235;52.198;9.904;2022-11-11T06:15:24;2.20;;;1.17;;
16254;SDS011;8235;52.198;9.904;2022-11-11T06:17:50;3.93;;;1.40;;
16254;SDS011;8235;52.198;9.904;2022-11-11T06:20:17;6.07;;;2.00;;
16254;SDS011;8235;52.198;9.904;2022-11-11T06:22:43;2.43;;;1.20;;
16254;SDS011;8235;52.198;9.904;2022-11-11T06:25:22;3.63;;;1.47;;
16254;SDS011;8235;52.198;9.904;2022-11-11T06:28:08;4.73;;;1.53;;
16254;SDS011;8235;52.198;9.904;2022-11-11T06:30:35;1.93;;;1.30;;
16254;SDS011;8235;52.198;9.904;2022-11-11T06:33:02;4.53;;;1.40;;
16254;SDS011;8235;52.198;9.904;2022-11-11T06:35:31;3.87;;;1.40;;
16254;SDS011;8235;52.198;9.904;2022-11-11T06:37:58;2.67;;;1.40;;
16254;SDS011;8235;52.198;9.904;2022-11-11T06:40:24;2.07;;;1.50;;
16254;SDS011;8235;52.198;9.904;2022-11-11T06:42:52;4.53;;;1.80;;
16254;SDS011;8235;52.198;9.904;2022-11-11T06:45:20;4.90;;;1.87;;
16254;SDS011;8235;52.198;9.904;2022-11-11T06:47:47;3.63;;;1.77;;
16254;SDS011;8235;52.198;9.904;2022-11-11T06:50:13;3.03;;;1.57;;
16254;SDS011;8235;52.198;9.904;2022-11-11T06:52:40;2.90;;;1.90;;
16254;SDS011;8235;52.198;9.904;2022-11-11T06:55:07;4.43;;;3.00;;
16254;SDS011;8235;52.198;9.904;2022-11-11T06:57:34;5.63;;;2.20;;
16254;SDS011;8235;52.198;9.904;2022-11-11T07:00:01;5.83;;;2.20;;
16254;SDS011;8235;52.198;9.904;2022-11-11T07:02:30;4.20;;;2.27;;
16254;SDS011;8235;52.198;9.904;2022-11-11T07:04:56;5.53;;;2.07;;
16254;SDS011;8235;52.198;9.904;2022-11-11T07:07:24;4.87;;;1.90;;
16254;SDS011;8235;52.198;9.904;2022-11-11T07:09:50;2.37;;;1.57;;
16254;SDS011;8235;52.198;9.904;2022-11-11T07:12:17;2.63;;;1.40;;
16254;SDS011;8235;52.198;9.904;2022-11-11T07:14:43;5.07;;;1.47;;
16254;SDS011;8235;52.198;9.904;2022-11-11T07:17:10;3.80;;;1.60;;
16254;SDS011;8235;52.198;9.904;2022-11-11T07:19:38;1.90;;;1.20;;
16254;SDS011;8235;52.198;9.904;2022-11-11T07:22:04;2.67;;;1.50;;
16254;SDS011;8235;52.198;9.904;2022-11-11T07:24:31;4.23;;;1.43;;
16254;SDS011;8235;52.198;9.904;2022-11-11T07:26:57;2.37;;;1.20;;
16254;SDS011;8235;52.198;9.904;2022-11-11T07:29:26;1.77;;;1.00;;
16254;SDS011;8235;52.198;9.904;2022-11-11T07:31:53;2.80;;;1.23;;
16254;SDS011;8235;52.198;9.904;2022-11-11T07:34:19;3.47;;;1.20;;
16254;SDS011;8235;52.198;9.904;2022-11-11T07:36:47;2.13;;;1.00;;
16254;SDS011;8235;52.198;9.904;2022-11-11T07:39:13;3.23;;;1.20;;
16254;SDS011;8235;52.198;9.904;2022-11-11T07:41:40;2.67;;;1.20;;
16254;SDS011;8235;52.198;9.904;2022-11-11T07:44:06;2.30;;;1.00;;
16254;SDS011;8235;52.198;9.904;2022-11-11T07:46:33;3.27;;;1.23;;
16254;SDS011;8235;52.198;9.904;2022-11-11T07:48:59;2.40;;;1.20;;
16254;SDS011;8235;52.198;9.904;2022-11-11T07:51:26;3.80;;;1.10;;
16254;SDS011;8235;52.198;9.904;2022-11-11T07:53:53;2.67;;;1.20;;
16254;SDS011;8235;52.198;9.904;2022-11-11T07:56:20;2.47;;;1.40;;
16254;SDS011;8235;52.198;9.904;2022-11-11T07:58:46;3.30;;;1.37;;
16254;SDS011;8235;52.198;9.904;2022-11-11T08:01:13;3.23;;;1.40;;
16254;SDS011;8235;52.198;9.904;2022-11-11T08:03:39;2.33;;;1.10;;
16254;SDS011;8235;52.198;9.904;2022-11-11T08:06:13;1.83;;;1.40;;
16254;SDS011;8235;52.198;9.904;2022-11-11T08:08:41;3.77;;;1.40;;
16254;SDS011;8235;52.198;9.904;2022-11-11T08:11:09;4.63;;;1.50;;
16254;SDS011;8235;52.198;9.904;2022-11-11T08:13:35;2.97;;;1.27;;
16254;SDS011;8235;52.198;9.904;2022-11-11T08:16:08;3.33;;;1.20;;
16254;SDS011;8235;52.198;9.904;2022-11-11T08:18:35;2.20;;;1.20;;
16254;SDS011;8235;52.198;9.904;2022-11-11T08:21:01;2.73;;;1.13;;
16254;SDS011;8235;52.198;9.904;2022-11-11T08:23:29;2.47;;;1.23;;
16254;SDS011;8235;52.198;9.904;2022-11-11T08:25:59;3.90;;;1.47;;
16254;SDS011;8235;52.198;9.904;2022-11-11T08:28:27;3.23;;;1.30;;
16254;SDS011;8235;52.198;9.904;2022-11-11T08:30:57;2.87;;;1.20;;
16254;SDS011;8235;52.198;9.904;2022-11-11T08:33:24;6.83;;;1.63;;
16254;SDS011;8235;52.198;9.904;2022-11-11T08:35:51;2.10;;;1.53;;
16254;SDS011;8235;52.198;9.904;2022-11-11T08:38:19;2.03;;;1.43;;
16254;SDS011;8235;52.198;9.904;2022-11-11T08:40:46;2.70;;;1.70;;
16254;SDS011;8235;52.198;9.904;2022-11-11T08:43:12;1.27;;;1.00;;
16254;SDS011;8235;52.198;9.904;2022-11-11T08:45:40;2.83;;;1.10;;
16254;SDS011;8235;52.198;9.904;2022-11-11T08:48:07;2.03;;;1.07;;
16254;SDS011;8235;52.198;9.904;2022-11-11T08:50:34;2.20;;;1.20;;
16254;SDS011;8235;52.198;9.904;2022-11-11T08:53:01;3.60;;;1.10;;
16254;SDS011;8235;52.198;9.904;2022-11-11T08:55:27;1.57;;;1.00;;
16254;SDS011;8235;52.198;9.904;2022-11-11T08:57:57;2.17;;;1.10;;
16254;SDS011;8235;52.198;9.904;2022-11-11T09:00:24;4.20;;;1.17;;
16254;SDS011;8235;52.198;9.904;2022-11-11T09:02:52;1.90;;;1.20;;
16254;SDS011;8235;52.198;9.904;2022-11-11T09:05:19;2.60;;;1.00;;
16254;SDS011;8235;52.198;9.904;2022-11-11T09:07:45;1.10;;;0.97;;
16254;SDS011;8235;52.198;9.904;2022-11-11T09:10:12;3.03;;;1.07;;
16254;SDS011;8235;52.198;9.904;2022-11-11T09:12:39;3.20;;;1.13;;
16254;SDS011;8235;52.198;9.904;2022-11-11T09:15:05;2.57;;;1.03;;
16254;SDS011;8235;52.198;9.904;2022-11-11T09:17:32;3.83;;;1.73;;
16254;SDS011;8235;52.198;9.904;2022-11-11T09:20:00;3.53;;;1.00;;
16254;SDS011;8235;52.198;9.904;2022-11-11T09:22:26;3.40;;;1.03;;
16254;SDS011;8235;52.198;9.904;2022-11-11T09:24:53;2.80;;;1.50;;
16254;SDS011;8235;52.198;9.904;2022-11-11T09:27:20;1.80;;;1.20;;
16254;SDS011;8235;52.198;9.904;2022-11-11T09:29:47;2.17;;;1.00;;
16254;SDS011;8235;52.198;9.904;2022-11-11T09:32:13;1.20;;;0.70;;
16254;SDS011;8235;52.198;9.904;2022-11-11T09:34:40;3.50;;;1.00;;
16254;SDS011;8235;52.198;9.904;2022-11-11T09:37:08;1.80;;;0.80;;
16254;SDS011;8235;52.198;9.904;2022-11-11T09:39:34;3.00;;;1.10;;
16254;SDS011;8235;52.198;9.904;2022-11-11T09:42:02;3.23;;;1.20;;
16254;SDS011;8235;52.198;9.904;2022-11-11T09:44:40;3.43;;;1.03;;
16254;SDS011;8235;52.198;9.904;2022-11-11T09:47:23;2.07;;;1.20;;
16254;SDS011;8235;52.198;9.904;2022-11-11T09:49:57;2.87;;;1.10;;
16254;SDS011;8235;52.198;9.904;2022-11-11T09:52:28;2.70;;;1.00;;
16254;SDS011;8235;52.198;9.904;2022-11-11T09:55:02;3.07;;;1.17;;
16254;SDS011;8235;52.198;9.904;2022-11-11T09:57:38;1.83;;;1.20;;
16254;SDS011;8235;52.198;9.904;2022-11-11T10:00:13;2.93;;;1.20;;
16254;SDS011;8235;52.198;9.904;2022-11-11T10:02:44;2.60;;;1.13;;
16254;SDS011;8235;52.198;9.904;2022-11-11T10:05:15;1.30;;;0.90;;
16254;SDS011;8235;52.198;9.904;2022-11-11T10:07:46;3.20;;;1.40;;
16254;SDS011;8235;52.198;9.904;2022-11-11T10:10:18;1.47;;;1.10;;
16254;SDS011;8235;52.198;9.904;2022-11-11T10:12:50;4.03;;;1.33;;
16254;SDS011;8235;52.198;9.904;2022-11-11T10:15:20;2.03;;;1.00;;
16254;SDS011;8235;52.198;9.904;2022-11-11T10:17:50;3.67;;;1.50;;
16254;SDS011;8235;52.198;9.904;2022-11-11T10:20:29;1.83;;;0.80;;
16254;SDS011;8235;52.198;9.904;2022-11-11T10:23:00;2.17;;;1.20;;
16254;SDS011;8235;52.198;9.904;2022-11-11T10:25:31;2.67;;;1.27;;
16254;SDS011;8235;52.198;9.904;2022-11-11T10:27:58;2.43;;;1.47;;
16254;SDS011;8235;52.198;9.904;2022-11-11T10:30:27;2.47;;;1.23;;
16254;SDS011;8235;52.198;9.904;2022-11-11T10:32:55;2.60;;;1.20;;
16254;SDS011;8235;52.198;9.904;2022-11-11T10:35:25;1.43;;;0.90;;
16254;SDS011;8235;52.198;9.904;2022-11-11T10:37:55;1.80;;;1.00;;
16254;SDS011;8235;52.198;9.904;2022-11-11T10:40:33;2.23;;;1.00;;
16254;SDS011;8235;52.198;9.904;2022-11-11T10:43:06;2.60;;;1.20;;
16254;SDS011;8235;52.198;9.904;2022-11-11T10:45:45;1.50;;;0.93;;
16254;SDS011;8235;52.198;9.904;2022-11-11T10:48:19;1.60;;;1.03;;
16254;SDS011;8235;52.198;9.904;2022-11-11T10:50:50;2.20;;;1.00;;
16254;SDS011;8235;52.198;9.904;2022-11-11T10:53:24;1.43;;;0.90;;
16254;SDS011;8235;52.198;9.904;2022-11-11T10:55:59;3.33;;;1.30;;
16254;SDS011;8235;52.198;9.904;2022-11-11T10:58:31;1.97;;;0.73;;
16254;SDS011;8235;52.198;9.904;2022-11-11T11:01:02;4.53;;;0.90;;
16254;SDS011;8235;52.198;9.904;2022-11-11T11:03:34;1.60;;;0.67;;
16254;SDS011;8235;52.198;9.904;2022-11-11T11:06:05;2.60;;;0.80;;
16254;SDS011;8235;52.198;9.904;2022-11-11T11:08:39;2.10;;;0.70;;
16254;SDS011;8235;52.198;9.904;2022-11-11T11:11:09;2.10;;;1.03;;
16254;SDS011;8235;52.198;9.904;2022-11-11T11:13:42;1.53;;;0.90;;
16254;SDS011;8235;52.198;9.904;2022-11-11T11:16:13;1.13;;;0.77;;
16254;SDS011;8235;52.198;9.904;2022-11-11T11:18:43;0.83;;;0.60;;
16254;SDS011;8235;52.198;9.904;2022-11-11T11:21:10;1.60;;;0.80;;
16254;SDS011;8235;52.198;9.904;2022-11-11T11:23:39;1.10;;;0.70;;
16254;SDS011;8235;52.198;9.904;2022-11-11T11:26:07;1.70;;;0.60;;
16254;SDS011;8235;52.198;9.904;2022-11-11T11:28:35;1.23;;;0.60;;
16254;SDS011;8235;52.198;9.904;2022-11-11T11:31:18;2.20;;;0.70;;
16254;SDS011;8235;52.198;9.904;2022-11-11T11:33:59;2.40;;;0.67;;
16254;SDS011;8235;52.198;9.904;2022-11-11T11:36:26;2.40;;;0.60;;
16254;SDS011;8235;52.198;9.904;2022-11-11T11:38:54;1.77;;;0.83;;
16254;SDS011;8235;52.198;9.904;2022-11-11T11:41:34;2.67;;;0.90;;
16254;SDS011;8235;52.198;9.904;2022-11-11T11:44:02;0.93;;;0.73;;
16254;SDS011;8235;52.198;9.904;2022-11-11T11:46:29;0.90;;;0.60;;
16254;SDS011;8235;52.198;9.904;2022-11-11T11:49:06;1.53;;;0.60;;
16254;SDS011;8235;52.198;9.904;2022-11-11T11:51:45;2.07;;;0.60;;
16254;SDS011;8235;52.198;9.904;2022-11-11T11:54:24;1.60;;;0.60;;
16254;SDS011;8235;52.198;9.904;2022-11-11T11:57:02;2.13;;;0.70;;
16254;SDS011;8235;52.198;9.904;2022-11-11T11:59:36;1.90;;;0.90;;
16254;SDS011;8235;52.198;9.904;2022-11-11T12:02:12;1.50;;;0.83;;
16254;SDS011;8235;52.198;9.904;2022-11-11T12:05:05;2.40;;;0.80;;
16254;SDS011;8235;52.198;9.904;2022-11-11T12:07:42;1.43;;;0.83;;
16254;SDS011;8235;52.198;9.904;2022-11-11T12:10:22;1.10;;;0.80;;
16254;SDS011;8235;52.198;9.904;2022-11-11T12:12:54;1.60;;;0.50;;
16254;SDS011;8235;52.198;9.904;2022-11-11T12:15:28;1.17;;;0.60;;
16254;SDS011;8235;52.198;9.904;2022-11-11T12:18:05;1.33;;;1.00;;
16254;SDS011;8235;52.198;9.904;2022-11-11T12:20:45;1.23;;;0.70;;
16254;SDS011;8235;52.198;9.904;2022-11-11T12:23:27;1.10;;;0.80;;
16254;SDS011;8235;52.198;9.904;2022-11-11T12:26:18;3.23;;;0.90;;
16254;SDS011;8235;52.198;9.904;2022-11-11T12:28:54;1.57;;;0.70;;
16254;SDS011;8235;52.198;9.904;2022-11-11T12:31:36;2.03;;;0.90;;
16254;SDS011;8235;52.198;9.904;2022-11-11T12:37:10;0.70;;;0.60;;
16254;SDS011;8235;52.198;9.904;2022-11-11T12:39:49;1.73;;;0.53;;
16254;SDS011;8235;52.198;9.904;2022-11-11T12:42:33;2.50;;;0.63;;
16254;SDS011;8235;52.198;9.904;2022-11-11T12:45:15;1.43;;;0.60;;
16254;SDS011;8235;52.198;9.904;2022-11-11T12:47:46;0.87;;;0.67;;
16254;SDS011;8235;52.198;9.904;2022-11-11T12:50:23;1.00;;;0.70;;
16254;SDS011;8235;52.198;9.904;2022-11-11T12:52:58;1.20;;;0.70;;
16254;SDS011;8235;52.198;9.904;2022-11-11T12:55:41;1.67;;;0.70;;
16254;SDS011;8235;52.198;9.904;2022-11-11T12:58:17;1.47;;;0.70;;
16254;SDS011;8235;52.198;9.904;2022-11-11T13:01:02;2.33;;;0.80;;
16254;SDS011;8235;52.198;9.904;2022-11-11T13:03:40;2.03;;;0.80;;
16254;SDS011;8235;52.198;9.904;2022-11-11T13:06:26;0.83;;;0.73;;
16254;SDS011;8235;52.198;9.904;2022-11-11T13:09:09;1.20;;;0.90;;
16254;SDS011;8235;52.198;9.904;2022-11-11T13:12:04;1.23;;;0.87;;
16254;SDS011;8235;52.198;9.904;2022-11-11T13:14:42;2.27;;;0.87;;
16254;SDS011;8235;52.198;9.904;2022-11-11T13:17:16;3.73;;;1.57;;
16254;SDS011;8235;52.198;9.904;2022-11-11T13:19:43;2.50;;;1.60;;
16254;SDS011;8235;52.198;9.904;2022-11-11T13:22:18;3.40;;;1.33;;
16254;SDS011;8235;52.198;9.904;2022-11-11T13:24:48;3.30;;;1.23;;
16254;SDS011;8235;52.198;9.904;2022-11-11T13:27:16;1.17;;;0.90;;
16254;SDS011;8235;52.198;9.904;2022-11-11T13:29:59;1.23;;;0.73;;
16254;SDS011;8235;52.198;9.904;2022-11-11T13:32:47;1.33;;;0.87;;
16254;SDS011;8235;52.198;9.904;2022-11-11T13:35:20;1.57;;;0.67;;
16254;SDS011;8235;52.198;9.904;2022-11-11T13:37:52;1.20;;;0.70;;
16254;SDS011;8235;52.198;9.904;2022-11-11T13:43:11;0.70;;;0.70;;
16254;SDS011;8235;52.198;9.904;2022-11-11T13:45:48;1.23;;;0.63;;
16254;SDS011;8235;52.198;9.904;2022-11-11T13:48:19;1.20;;;1.00;;
16254;SDS011;8235;52.198;9.904;2022-11-11T13:50:50;1.60;;;1.30;;
16254;SDS011;8235;52.198;9.904;2022-11-11T13:53:23;2.93;;;1.50;;
16254;SDS011;8235;52.198;9.904;2022-11-11T13:55:53;1.00;;;0.90;;
16254;SDS011;8235;52.198;9.904;2022-11-11T13:58:27;1.43;;;0.80;;
16254;SDS011;8235;52.198;9.904;2022-11-11T14:00:58;2.13;;;0.97;;
16254;SDS011;8235;52.198;9.904;2022-11-11T14:03:32;1.40;;;1.00;;
16254;SDS011;8235;52.198;9.904;2022-11-11T14:09:05;1.83;;;1.03;;
16254;SDS011;8235;52.198;9.904;2022-11-11T14:11:33;3.03;;;1.40;;
16254;SDS011;8235;52.198;9.904;2022-11-11T14:17:10;2.30;;;0.83;;
16254;SDS011;8235;52.198;9.904;2022-11-11T14:19:39;3.40;;;1.00;;
16254;SDS011;8235;52.198;9.904;2022-11-11T14:22:22;2.60;;;1.43;;
16254;SDS011;8235;52.198;9.904;2022-11-11T14:25:14;3.53;;;2.40;;
16254;SDS011;8235;52.198;9.904;2022-11-11T14:27:46;2.97;;;1.83;;
16254;SDS011;8235;52.198;9.904;2022-11-11T14:33:10;1.03;;;0.73;;
16254;SDS011;8235;52.198;9.904;2022-11-11T14:35:52;1.43;;;0.90;;
16254;SDS011;8235;52.198;9.904;2022-11-11T14:38:34;1.80;;;0.80;;
16254;SDS011;8235;52.198;9.904;2022-11-11T14:47:17;1.33;;;1.07;;
16254;SDS011;8235;52.198;9.904;2022-11-11T14:49:50;1.13;;;0.80;;
16254;SDS011;8235;52.198;9.904;2022-11-11T14:52:22;1.20;;;0.90;;
16254;SDS011;8235;52.198;9.904;2022-11-11T14:54:54;4.50;;;1.20;;
16254;SDS011;8235;52.198;9.904;2022-11-11T14:57:29;1.20;;;0.80;;
16254;SDS011;8235;52.198;9.904;2022-11-11T14:59:58;2.60;;;0.90;;
16254;SDS011;8235;52.198;9.904;2022-11-11T15:02:28;3.20;;;1.00;;
16254;SDS011;8235;52.198;9.904;2022-11-11T15:05:00;1.07;;;0.97;;
16254;SDS011;8235;52.198;9.904;2022-11-11T15:07:33;1.40;;;1.03;;
16254;SDS011;8235;52.198;9.904;2022-11-11T15:10:13;1.40;;;0.97;;
16254;SDS011;8235;52.198;9.904;2022-11-11T15:12:52;3.80;;;1.00;;
16254;SDS011;8235;52.198;9.904;2022-11-11T15:15:33;1.43;;;0.90;;
16254;SDS011;8235;52.198;9.904;2022-11-11T15:18:08;1.37;;;0.70;;
16254;SDS011;8235;52.198;9.904;2022-11-11T15:20:52;2.77;;;1.50;;
16254;SDS011;8235;52.198;9.904;2022-11-11T15:23:29;2.23;;;2.00;;
16254;SDS011;8235;52.198;9.904;2022-11-11T15:26:05;4.30;;;3.10;;
16254;SDS011;8235;52.198;9.904;2022-11-11T15:28:52;3.17;;;2.87;;
16254;SDS011;8235;52.198;9.904;2022-11-11T15:31:43;4.40;;;2.00;;
16254;SDS011;8235;52.198;9.904;2022-11-11T15:34:23;1.60;;;1.50;;
16254;SDS011;8235;52.198;9.904;2022-11-11T15:36:57;1.60;;;1.03;;
16254;SDS011;8235;52.198;9.904;2022-11-11T15:39:36;2.13;;;1.17;;
16254;SDS011;8235;52.198;9.904;2022-11-11T15:42:05;1.80;;;1.07;;
16254;SDS011;8235;52.198;9.904;2022-11-11T15:44:38;1.77;;;1.00;;
16254;SDS011;8235;52.198;9.904;2022-11-11T15:47:05;2.13;;;1.30;;
16254;SDS011;8235;52.198;9.904;2022-11-11T15:49:35;2.30;;;1.50;;